Terminal Aerodrome Forecast
Issued by NWS

Home | Current Version | Previous Version | Text Only | Print | Product List | Glossary On
Versions: 1 2 3 4 5 6 7 8 9 10 11 12 13 14 15 16 17 18 19 20 21 22 23 24 25 26 27 28 29 30 31 32
171
FTUS45 KREV 232000 AAA
TAFTRK
TAF AMD
KTRK 232000Z 2320/2418 VRB03KT P6SM VCSH SCT018 BKN030 BKN100
     FM232100 23005KT P6SM FEW020 BKN035=

USA.gov is the U.S. government's official web portal to all federal, state and local government web resources and services.